createdAt,value
2018-06-16T00:01:18.941Z,8.97
2018-06-16T00:03:48.377Z,8.43
2018-06-16T00:06:17.787Z,9.47
2018-06-16T00:08:46.731Z,9.20
2018-06-16T00:11:15.595Z,9.40
2018-06-16T00:13:44.423Z,9.30
2018-06-16T00:16:13.190Z,8.80
2018-06-16T00:18:42.264Z,8.20
2018-06-16T00:21:11.252Z,8.53
2018-06-16T00:23:39.966Z,9.00
2018-06-16T00:26:08.892Z,10.27
2018-06-16T00:28:37.807Z,9.00
2018-06-16T00:31:06.545Z,10.43
2018-06-16T00:33:35.408Z,9.80
2018-06-16T00:36:04.300Z,10.53
2018-06-16T00:38:34.092Z,8.97
2018-06-16T00:41:03.082Z,9.33
2018-06-16T00:43:31.931Z,9.33
2018-06-16T00:46:00.775Z,9.93
2018-06-16T00:48:29.796Z,9.53
2018-06-16T00:50:58.624Z,8.00
2018-06-16T00:53:27.353Z,9.63
2018-06-16T00:55:56.827Z,9.80
2018-06-16T00:58:25.737Z,9.57
2018-06-16T01:00:54.592Z,9.50
2018-06-16T01:03:23.423Z,9.57
2018-06-16T01:05:52.270Z,9.57
2018-06-16T01:08:21.133Z,9.30
2018-06-16T01:10:50.024Z,9.03
2018-06-16T01:13:18.895Z,9.23
2018-06-16T01:15:47.768Z,8.23
2018-06-16T01:18:16.615Z,9.80
2018-06-16T01:20:46.604Z,9.03
2018-06-16T01:23:15.487Z,9.40
2018-06-16T01:25:44.358Z,8.80
2018-06-16T01:28:13.247Z,8.57
2018-06-16T01:30:42.128Z,9.30
2018-06-16T01:33:10.977Z,9.23
2018-06-16T01:35:39.852Z,9.97
2018-06-16T01:38:08.744Z,9.03
2018-06-16T01:40:37.671Z,8.97
2018-06-16T01:43:06.534Z,9.10
2018-06-16T01:45:35.405Z,10.27
2018-06-16T01:48:04.384Z,9.40
2018-06-16T01:50:33.431Z,11.60
2018-06-16T01:53:02.277Z,9.13
2018-06-16T01:55:31.158Z,9.37
2018-06-16T01:58:00.060Z,9.30
2018-06-16T02:00:28.946Z,8.50
2018-06-16T02:02:57.821Z,9.67
2018-06-16T02:05:26.683Z,9.63
2018-06-16T02:07:55.502Z,10.70
2018-06-16T02:10:24.428Z,9.40
2018-06-16T02:12:53.414Z,9.43
2018-06-16T02:15:22.259Z,8.77
2018-06-16T02:17:51.167Z,9.60
2018-06-16T02:20:20.075Z,8.97
2018-06-16T02:22:49.692Z,9.20
2018-06-16T02:25:18.569Z,9.93
2018-06-16T02:27:47.453Z,9.73
2018-06-16T02:30:16.327Z,9.40
2018-06-16T02:32:45.223Z,9.90
2018-06-16T02:35:14.078Z,10.60
2018-06-16T02:37:43.051Z,9.30
2018-06-16T02:40:11.893Z,10.00
2018-06-16T02:42:40.708Z,8.67
2018-06-16T02:45:09.539Z,8.97
2018-06-16T02:47:38.403Z,9.77
2018-06-16T02:50:07.437Z,9.37
2018-06-16T02:52:36.231Z,9.40
2018-06-16T02:55:05.379Z,10.43
2018-06-16T02:57:34.318Z,9.70
2018-06-16T03:00:03.320Z,9.90
2018-06-16T03:02:32.377Z,9.33
2018-06-16T03:05:01.618Z,8.60
2018-06-16T03:07:30.495Z,9.10
2018-06-16T03:09:59.317Z,9.40
2018-06-16T03:12:28.175Z,9.53
2018-06-16T03:14:57.032Z,9.70
2018-06-16T03:17:25.877Z,8.87
2018-06-16T03:19:54.746Z,10.33
2018-06-16T03:22:23.541Z,9.80
2018-06-16T03:24:52.441Z,10.60
2018-06-16T03:27:21.268Z,10.10
2018-06-16T03:29:50.274Z,10.07
2018-06-16T03:32:19.179Z,10.60
2018-06-16T03:34:48.041Z,10.60
2018-06-16T03:37:16.910Z,10.37
2018-06-16T03:39:45.811Z,10.67
2018-06-16T03:42:14.633Z,8.80
2018-06-16T03:44:43.479Z,11.33
2018-06-16T03:47:12.382Z,9.60
2018-06-16T03:49:41.344Z,10.40
2018-06-16T03:52:10.271Z,11.63
2018-06-16T03:54:39.323Z,10.40
2018-06-16T03:57:08.306Z,10.20
2018-06-16T03:59:37.221Z,9.97
2018-06-16T04:02:06.100Z,9.97
2018-06-16T04:04:35.155Z,8.80
2018-06-16T04:07:03.914Z,10.03
2018-06-16T04:09:32.677Z,9.90
2018-06-16T04:12:01.572Z,11.67
2018-06-16T04:14:30.386Z,10.10
2018-06-16T04:17:03.761Z,10.00
2018-06-16T04:19:32.677Z,9.97
2018-06-16T04:22:01.518Z,10.73
2018-06-16T04:24:30.408Z,10.83
2018-06-16T04:26:59.303Z,10.80
2018-06-16T04:29:28.218Z,9.60
2018-06-16T04:31:57.509Z,10.30
2018-06-16T04:34:26.412Z,10.80
2018-06-16T04:36:55.313Z,9.97
2018-06-16T04:39:24.278Z,10.80
2018-06-16T04:41:53.236Z,9.27
2018-06-16T04:44:22.059Z,9.47
2018-06-16T04:46:50.891Z,10.03
2018-06-16T04:49:19.755Z,10.10
2018-06-16T04:51:48.648Z,10.33
2018-06-16T04:54:17.576Z,10.10
2018-06-16T04:56:46.409Z,10.63
2018-06-16T04:59:15.351Z,10.50
2018-06-16T05:01:44.105Z,10.60
2018-06-16T05:04:13.683Z,9.40
2018-06-16T05:06:43.120Z,10.77
2018-06-16T05:09:12.521Z,11.00
2018-06-16T05:11:41.408Z,9.10
2018-06-16T05:14:10.751Z,10.30
2018-06-16T05:16:40.024Z,9.40
2018-06-16T05:19:09.004Z,8.67
2018-06-16T05:21:38.379Z,9.67
2018-06-16T05:24:07.339Z,10.50
2018-06-16T05:26:36.252Z,9.33
2018-06-16T05:29:05.633Z,8.40
2018-06-16T05:31:34.725Z,9.80
2018-06-16T05:34:03.868Z,9.10
2018-06-16T05:36:32.716Z,8.73
2018-06-16T05:39:01.791Z,8.93
2018-06-16T05:41:30.698Z,10.03
2018-06-16T05:43:59.597Z,9.33
2018-06-16T05:46:28.488Z,9.67
2018-06-16T05:48:57.972Z,9.43
2018-06-16T05:51:27.025Z,9.13
2018-06-16T05:53:55.810Z,9.67
2018-06-16T05:56:28.111Z,8.90
2018-06-16T05:58:57.205Z,8.60
2018-06-16T06:01:26.456Z,11.23
2018-06-16T06:03:55.210Z,10.03
2018-06-16T06:06:24.244Z,10.03
2018-06-16T06:08:53.303Z,10.57
2018-06-16T06:11:22.169Z,8.87
2018-06-16T06:13:51.136Z,8.60
2018-06-16T06:16:20.292Z,9.93
2018-06-16T06:18:49.148Z,8.87
2018-06-16T06:21:17.971Z,9.63
2018-06-16T06:23:47.361Z,11.00
2018-06-16T06:26:16.540Z,8.77
2018-06-16T06:28:45.523Z,10.63
2018-06-16T06:31:14.353Z,11.27
2018-06-16T06:33:43.730Z,10.27
2018-06-16T06:36:13.040Z,11.00
2018-06-16T06:38:42.252Z,10.73
2018-06-16T06:41:11.396Z,8.67
2018-06-16T06:43:40.321Z,9.20
2018-06-16T06:46:09.145Z,8.20
2018-06-16T06:48:37.987Z,8.33
2018-06-16T06:51:06.848Z,10.10
2018-06-16T06:53:35.739Z,9.03
2018-06-16T06:56:04.646Z,9.10
2018-06-16T06:58:33.487Z,8.10
2018-06-16T07:01:02.696Z,8.07
2018-06-16T07:03:31.524Z,9.07
2018-06-16T07:06:00.398Z,8.70
2018-06-16T07:08:29.351Z,8.10
2018-06-16T07:10:58.380Z,8.97
2018-06-16T07:13:27.413Z,11.10
2018-06-16T07:15:56.335Z,7.90
2018-06-16T07:18:25.502Z,9.37
2018-06-16T07:20:54.758Z,8.20
2018-06-16T07:23:23.639Z,8.20
2018-06-16T07:25:52.529Z,9.73
2018-06-16T07:28:21.423Z,7.60
2018-06-16T07:30:50.249Z,9.43
2018-06-16T07:33:19.222Z,7.90
2018-06-16T07:35:48.088Z,8.60
2018-06-16T07:38:17.176Z,8.27
2018-06-16T07:40:46.211Z,7.90
2018-06-16T07:43:15.079Z,9.00
2018-06-16T07:45:44.291Z,8.20
2018-06-16T07:48:13.255Z,8.27
2018-06-16T07:50:42.086Z,6.90
2018-06-16T07:53:10.972Z,8.90
2018-06-16T07:55:39.992Z,8.37
2018-06-16T07:58:08.856Z,9.70
2018-06-16T08:00:37.720Z,7.87
2018-06-16T08:03:06.667Z,7.57
2018-06-16T08:05:35.551Z,7.47
2018-06-16T08:08:04.452Z,7.43
2018-06-16T08:10:33.392Z,8.33
2018-06-16T08:13:02.242Z,8.03
2018-06-16T08:15:31.055Z,7.87
2018-06-16T08:17:59.821Z,8.43
2018-06-16T08:20:28.752Z,8.73
2018-06-16T08:22:57.606Z,7.80
2018-06-16T08:25:26.482Z,7.03
2018-06-16T08:27:55.355Z,7.63
2018-06-16T08:30:24.220Z,7.70
2018-06-16T08:32:53.059Z,6.90
2018-06-16T08:35:21.879Z,7.30
2018-06-16T08:37:50.618Z,7.70
2018-06-16T08:40:19.444Z,7.03
2018-06-16T08:42:48.299Z,8.17
2018-06-16T08:45:17.158Z,8.47
2018-06-16T08:47:45.974Z,8.43
2018-06-16T08:50:14.824Z,8.27
2018-06-16T08:52:43.665Z,8.73
2018-06-16T08:55:12.524Z,13.23
2018-06-16T08:57:41.363Z,18.07
2018-06-16T09:00:10.173Z,9.37
2018-06-16T09:02:39.264Z,7.80
2018-06-16T09:05:08.003Z,7.97
2018-06-16T09:07:37.012Z,8.57
2018-06-16T09:10:05.955Z,7.27
2018-06-16T09:12:34.689Z,7.47
2018-06-16T09:15:03.632Z,6.87
2018-06-16T09:17:32.479Z,7.90
2018-06-16T09:20:01.416Z,6.80
2018-06-16T09:22:30.259Z,7.53
2018-06-16T09:24:59.015Z,7.53
2018-06-16T09:27:27.829Z,7.40
2018-06-16T09:29:56.772Z,9.13
2018-06-16T09:32:25.607Z,7.57
2018-06-16T09:34:54.442Z,7.40
2018-06-16T09:37:23.308Z,8.50
2018-06-16T09:39:52.262Z,7.70
2018-06-16T09:42:21.184Z,6.90
2018-06-16T09:44:50.015Z,7.40
2018-06-16T09:47:18.850Z,8.33
2018-06-16T09:49:47.815Z,8.00
2018-06-16T09:52:16.641Z,6.40
2018-06-16T09:54:45.434Z,7.70
2018-06-16T09:57:14.276Z,7.47
2018-06-16T09:59:43.167Z,6.90
2018-06-16T10:02:11.996Z,6.77
2018-06-16T10:04:41.355Z,8.27
2018-06-16T10:07:10.255Z,6.77
2018-06-16T10:09:39.147Z,6.43
2018-06-16T10:12:07.984Z,7.20
2018-06-16T10:14:36.808Z,6.80
2018-06-16T10:17:05.674Z,6.47
2018-06-16T10:19:34.469Z,7.00
2018-06-16T10:22:03.460Z,7.50
2018-06-16T10:24:32.193Z,7.40
2018-06-16T10:27:01.035Z,7.80
2018-06-16T10:29:29.920Z,8.00
2018-06-16T10:31:58.736Z,7.30
2018-06-16T10:34:27.573Z,7.67
2018-06-16T10:36:56.391Z,7.20
2018-06-16T10:39:25.299Z,9.50
2018-06-16T10:41:54.199Z,19.93
2018-06-16T10:44:23.062Z,7.57
2018-06-16T10:46:51.925Z,10.23
2018-06-16T10:49:20.823Z,7.20
2018-06-16T10:51:49.883Z,10.53
2018-06-16T10:54:18.726Z,7.53
2018-06-16T10:56:47.632Z,8.33
2018-06-16T10:59:18.198Z,8.33
2018-06-16T11:01:47.427Z,7.60
2018-06-16T11:04:16.787Z,7.13
2018-06-16T11:06:45.730Z,7.80
2018-06-16T11:09:14.689Z,7.67
2018-06-16T11:11:43.944Z,7.20
2018-06-16T11:14:12.790Z,6.77
2018-06-16T11:16:41.614Z,7.43
2018-06-16T11:19:10.566Z,6.67
2018-06-16T11:21:39.431Z,6.87
2018-06-16T11:24:08.258Z,7.50
2018-06-16T11:26:37.167Z,8.23
2018-06-16T11:29:06.139Z,7.70
2018-06-16T11:31:34.991Z,7.10
2018-06-16T11:34:04.123Z,6.80
2018-06-16T11:36:33.020Z,7.50
2018-06-16T11:39:02.005Z,6.30
2018-06-16T11:41:30.853Z,6.27
2018-06-16T11:43:59.697Z,6.20
2018-06-16T11:46:28.525Z,5.90
2018-06-16T11:48:57.423Z,6.90
2018-06-16T11:51:26.279Z,6.10
2018-06-16T11:53:55.103Z,7.10
2018-06-16T11:56:24.023Z,6.80
2018-06-16T11:58:52.874Z,6.10
2018-06-16T12:01:21.740Z,6.40
2018-06-16T12:03:50.579Z,6.53
2018-06-16T12:06:19.395Z,7.07
2018-06-16T12:08:48.844Z,6.67
2018-06-16T12:11:17.823Z,6.67
2018-06-16T12:13:46.979Z,7.30
2018-06-16T12:16:22.811Z,6.83
2018-06-16T12:18:52.249Z,6.30
2018-06-16T12:21:21.648Z,6.67
2018-06-16T12:23:50.551Z,8.00
2018-06-16T12:26:19.459Z,7.67
2018-06-16T12:28:48.436Z,5.80
2018-06-16T12:31:17.204Z,6.90
2018-06-16T12:33:46.520Z,7.83
2018-06-16T12:36:15.410Z,7.13
2018-06-16T12:38:44.381Z,6.57
2018-06-16T12:41:13.630Z,6.80
2018-06-16T12:43:42.524Z,7.70
2018-06-16T12:46:11.731Z,7.00
2018-06-16T12:48:41.631Z,6.70
2018-06-16T12:51:10.478Z,7.47
2018-06-16T12:53:39.299Z,7.00
2018-06-16T12:56:08.339Z,7.27
2018-06-16T12:58:37.236Z,7.73
2018-06-16T13:01:06.083Z,7.13
2018-06-16T13:03:35.032Z,7.67
2018-06-16T13:06:03.928Z,7.60
2018-06-16T13:08:32.747Z,8.87
2018-06-16T13:11:01.506Z,7.20
2018-06-16T13:13:30.392Z,7.00
2018-06-16T13:15:59.465Z,8.43
2018-06-16T13:18:28.315Z,7.13
2018-06-16T13:20:57.151Z,7.07
2018-06-16T13:23:26.088Z,9.00
2018-06-16T13:25:54.996Z,7.50
2018-06-16T13:28:23.720Z,6.87
2018-06-16T13:30:52.556Z,7.17
2018-06-16T13:33:21.387Z,6.67
2018-06-16T13:35:50.296Z,6.93
2018-06-16T13:38:19.233Z,7.17
2018-06-16T13:40:48.159Z,6.90
2018-06-16T13:43:17.020Z,8.40
2018-06-16T13:45:45.892Z,6.60
2018-06-16T13:48:14.719Z,7.90
2018-06-16T13:50:43.620Z,9.20
2018-06-16T13:53:12.488Z,7.83
2018-06-16T13:55:41.324Z,7.77
2018-06-16T13:58:10.180Z,8.00
2018-06-16T14:00:39.042Z,8.00
2018-06-16T14:03:07.890Z,7.20
2018-06-16T14:05:36.763Z,7.80
2018-06-16T14:08:06.304Z,8.37
2018-06-16T14:10:35.475Z,7.87
2018-06-16T14:13:04.567Z,7.90
2018-06-16T14:15:33.399Z,8.83
2018-06-16T14:18:02.239Z,6.67
2018-06-16T14:20:31.113Z,7.40
2018-06-16T14:22:59.971Z,7.53
2018-06-16T14:25:28.813Z,6.63
2018-06-16T14:27:57.658Z,7.20
2018-06-16T14:30:26.553Z,7.10
2018-06-16T14:32:55.320Z,7.27
2018-06-16T14:35:24.148Z,8.30
2018-06-16T14:37:52.972Z,6.10
2018-06-16T14:40:21.862Z,7.50
2018-06-16T14:42:50.749Z,6.90
2018-06-16T14:45:19.591Z,7.40
2018-06-16T14:47:48.443Z,6.87
2018-06-16T14:50:17.448Z,6.90
2018-06-16T14:52:46.312Z,7.33
2018-06-16T14:55:15.201Z,8.00
2018-06-16T14:57:44.091Z,6.70
2018-06-16T15:00:13.041Z,7.27
2018-06-16T15:02:41.879Z,8.30
2018-06-16T15:05:10.691Z,7.70
2018-06-16T15:07:39.523Z,7.97
2018-06-16T15:10:08.427Z,8.03
2018-06-16T15:12:37.249Z,7.87
2018-06-16T15:15:06.120Z,7.80
2018-06-16T15:17:34.980Z,8.03
2018-06-16T15:20:04.391Z,7.23
2018-06-16T15:22:33.230Z,7.27
2018-06-16T15:25:02.292Z,7.80
2018-06-16T15:27:31.125Z,7.53
2018-06-16T15:30:03.184Z,7.27
2018-06-16T15:32:32.128Z,6.87
2018-06-16T15:35:00.991Z,7.83
2018-06-16T15:37:29.823Z,7.50
2018-06-16T15:39:58.683Z,7.77
2018-06-16T15:42:27.613Z,8.43
2018-06-16T15:44:56.452Z,8.23
2018-06-16T15:47:25.327Z,8.17
2018-06-16T15:49:54.259Z,8.73
2018-06-16T15:52:23.075Z,7.53
2018-06-16T15:54:51.996Z,7.50
2018-06-16T15:57:21.024Z,8.27
2018-06-16T15:59:49.902Z,8.10
2018-06-16T16:02:18.715Z,9.27
2018-06-16T16:04:47.539Z,10.80
2018-06-16T16:07:16.443Z,9.20
2018-06-16T16:09:45.347Z,9.10
2018-06-16T16:12:14.311Z,8.90
2018-06-16T16:14:43.128Z,7.57
2018-06-16T16:17:11.838Z,8.40
2018-06-16T16:19:40.755Z,8.00
2018-06-16T16:22:09.603Z,8.90
2018-06-16T16:24:38.436Z,8.27
2018-06-16T16:27:07.304Z,7.60
2018-06-16T16:29:36.179Z,9.10
2018-06-16T16:32:05.311Z,8.20
2018-06-16T16:34:34.158Z,9.00
2018-06-16T16:37:03.020Z,8.97
2018-06-16T16:39:31.935Z,9.03
2018-06-16T16:42:00.843Z,8.57
2018-06-16T16:44:29.671Z,8.00
2018-06-16T16:46:58.514Z,9.10
2018-06-16T16:49:27.433Z,8.37
2018-06-16T16:51:56.272Z,8.60
2018-06-16T16:54:25.147Z,7.97
2018-06-16T16:56:53.979Z,8.50
2018-06-16T16:59:22.854Z,8.73
2018-06-16T17:01:51.587Z,8.50
2018-06-16T17:04:20.387Z,8.40
2018-06-16T17:06:49.216Z,7.73
2018-06-16T17:09:18.102Z,8.63
2018-06-16T17:11:46.963Z,8.67
2018-06-16T17:14:15.836Z,8.03
2018-06-16T17:16:44.699Z,8.00
2018-06-16T17:19:13.605Z,9.43
2018-06-16T17:21:43.068Z,7.93
2018-06-16T17:24:12.089Z,7.77
2018-06-16T17:26:40.947Z,8.50
2018-06-16T17:29:09.869Z,9.30
2018-06-16T17:31:38.751Z,8.83
2018-06-16T17:34:07.616Z,8.63
2018-06-16T17:36:36.442Z,8.07
2018-06-16T17:39:09.580Z,7.40
2018-06-16T17:41:38.591Z,8.30
2018-06-16T17:44:07.347Z,9.27
2018-06-16T17:46:37.066Z,8.60
2018-06-16T17:49:05.996Z,10.33
2018-06-16T17:51:34.909Z,10.30
2018-06-16T17:54:03.744Z,8.70
2018-06-16T17:56:32.588Z,8.23
2018-06-16T17:59:01.471Z,8.90
2018-06-16T18:01:30.347Z,9.90
2018-06-16T18:03:59.175Z,9.20
2018-06-16T18:06:28.019Z,9.47
2018-06-16T18:08:56.938Z,10.70
2018-06-16T18:11:25.780Z,10.03
2018-06-16T18:13:54.676Z,9.77
2018-06-16T18:16:23.527Z,9.67
2018-06-16T18:18:52.377Z,11.60
2018-06-16T18:21:21.236Z,9.40
2018-06-16T18:23:51.094Z,10.27
2018-06-16T18:26:19.989Z,10.50
2018-06-16T18:28:49.723Z,10.73
2018-06-16T18:31:18.558Z,10.00
2018-06-16T18:33:47.410Z,11.57
2018-06-16T18:36:16.297Z,10.37
2018-06-16T18:38:45.126Z,10.57
2018-06-16T18:41:13.988Z,9.73
2018-06-16T18:43:42.852Z,10.07
2018-06-16T18:46:11.859Z,10.10
2018-06-16T18:48:40.768Z,11.47
2018-06-16T18:51:09.636Z,10.93
2018-06-16T18:53:38.490Z,10.07
2018-06-16T18:56:07.744Z,10.10
2018-06-16T18:58:36.514Z,10.90
2018-06-16T19:01:05.383Z,10.80
2018-06-16T19:03:34.238Z,10.23
2018-06-16T19:06:03.025Z,10.00
2018-06-16T19:08:31.782Z,11.47
2018-06-16T19:11:00.963Z,11.17
2018-06-16T19:13:29.787Z,12.03
2018-06-16T19:15:58.638Z,11.60
2018-06-16T19:18:27.456Z,11.83
2018-06-16T19:20:56.440Z,11.20
2018-06-16T19:23:25.291Z,12.40
2018-06-16T19:25:54.195Z,10.50
2018-06-16T19:28:23.028Z,10.80
2018-06-16T19:30:51.861Z,11.20
2018-06-16T19:33:20.711Z,11.53
2018-06-16T19:35:49.535Z,12.40
2018-06-16T19:38:18.583Z,12.80
2018-06-16T19:40:47.527Z,12.30
2018-06-16T19:43:16.372Z,13.03
2018-06-16T19:45:45.243Z,12.37
2018-06-16T19:48:14.144Z,14.10
2018-06-16T19:50:43.076Z,12.53
2018-06-16T19:53:11.814Z,13.20
2018-06-16T19:55:40.659Z,13.57
2018-06-16T19:58:09.369Z,11.70
2018-06-16T20:00:38.227Z,13.53
2018-06-16T20:03:06.993Z,13.80
2018-06-16T20:05:35.842Z,14.93
2018-06-16T20:08:04.992Z,13.30
2018-06-16T20:10:33.935Z,13.53
2018-06-16T20:13:02.804Z,16.67
2018-06-16T20:15:31.678Z,18.77
2018-06-16T20:18:00.536Z,17.43
2018-06-16T20:20:29.473Z,18.93
2018-06-16T20:22:58.307Z,20.37
2018-06-16T20:25:27.192Z,20.83
2018-06-16T20:27:56.036Z,18.83
2018-06-16T20:30:25.967Z,18.40
2018-06-16T20:32:54.764Z,18.60
2018-06-16T20:35:23.584Z,16.40
2018-06-16T20:37:52.450Z,17.07
2018-06-16T20:40:21.373Z,16.23
2018-06-16T20:42:50.234Z,16.70
2018-06-16T20:45:19.068Z,15.97
2018-06-16T20:47:47.901Z,15.93
2018-06-16T20:50:16.797Z,15.97
2018-06-16T20:52:45.667Z,15.10
2018-06-16T20:55:14.549Z,16.20
2018-06-16T20:57:43.399Z,17.57
2018-06-16T21:00:12.232Z,15.90
2018-06-16T21:02:41.168Z,14.97
2018-06-16T21:05:10.007Z,14.73
2018-06-16T21:07:38.843Z,15.07
2018-06-16T21:10:07.806Z,14.23
2018-06-16T21:12:36.628Z,13.80
2018-06-16T21:15:05.677Z,13.07
2018-06-16T21:17:34.504Z,14.23
2018-06-16T21:20:03.564Z,14.97
2018-06-16T21:22:32.448Z,12.83
2018-06-16T21:25:01.300Z,17.43
2018-06-16T21:27:30.151Z,14.17
2018-06-16T21:29:59.089Z,13.77
2018-06-16T21:32:27.939Z,13.80
2018-06-16T21:34:56.784Z,13.00
2018-06-16T21:37:25.657Z,12.90
2018-06-16T21:39:54.590Z,13.00
2018-06-16T21:42:23.435Z,13.83
2018-06-16T21:44:52.314Z,14.43
2018-06-16T21:47:21.158Z,13.37
2018-06-16T21:49:50.044Z,13.60
2018-06-16T21:52:18.874Z,15.47
2018-06-16T21:54:47.687Z,14.10
2018-06-16T21:57:16.564Z,14.27
2018-06-16T21:59:45.475Z,11.40
2018-06-16T22:02:14.423Z,12.00
2018-06-16T22:04:43.348Z,12.60
2018-06-16T22:07:12.167Z,11.73
2018-06-16T22:09:41.063Z,10.87
2018-06-16T22:12:09.870Z,11.27
2018-06-16T22:14:38.727Z,10.10
2018-06-16T22:17:07.595Z,11.27
2018-06-16T22:19:36.991Z,10.20
2018-06-16T22:22:05.883Z,9.80
2018-06-16T22:24:34.696Z,11.20
2018-06-16T22:27:03.606Z,11.17
2018-06-16T22:29:32.471Z,9.90
2018-06-16T22:32:01.331Z,10.67
2018-06-16T22:34:30.143Z,11.27
2018-06-16T22:36:58.968Z,10.17
2018-06-16T22:39:27.852Z,11.00
2018-06-16T22:41:56.566Z,11.33
2018-06-16T22:44:25.406Z,11.17
2018-06-16T22:46:54.131Z,10.57
2018-06-16T22:49:23.021Z,11.50
2018-06-16T22:51:51.843Z,9.87
2018-06-16T22:54:20.647Z,9.27
2018-06-16T22:56:49.483Z,7.60
2018-06-16T22:59:18.362Z,8.80
2018-06-16T23:01:47.198Z,9.47
2018-06-16T23:04:16.024Z,9.30
2018-06-16T23:06:44.750Z,8.67
2018-06-16T23:09:13.604Z,10.30
2018-06-16T23:11:42.499Z,9.27
2018-06-16T23:14:11.351Z,10.00
2018-06-16T23:16:40.194Z,9.33
2018-06-16T23:19:09.082Z,9.70
2018-06-16T23:21:37.899Z,9.20
2018-06-16T23:24:06.771Z,8.30
2018-06-16T23:26:35.575Z,8.80
2018-06-16T23:29:04.444Z,9.50
2018-06-16T23:31:33.260Z,9.17
2018-06-16T23:34:02.087Z,8.70
2018-06-16T23:36:30.963Z,9.50
2018-06-16T23:38:59.902Z,9.07
2018-06-16T23:41:28.739Z,8.87
2018-06-16T23:43:57.555Z,8.90
2018-06-16T23:46:26.297Z,8.77
2018-06-16T23:48:55.166Z,9.70
2018-06-16T23:51:23.980Z,8.50
2018-06-16T23:53:52.807Z,9.50
2018-06-16T23:56:21.656Z,9.43
2018-06-16T23:58:50.588Z,9.63
